createdAt,value
2017-11-27T00:00:24.285Z,22.4
2017-11-27T00:01:32.439Z,22.4
2017-11-27T00:02:40.570Z,22.4
2017-11-27T00:03:48.624Z,22.4
2017-11-27T00:04:56.638Z,22.4
2017-11-27T00:06:04.719Z,22.3
2017-11-27T00:07:12.917Z,22.3
2017-11-27T00:08:20.981Z,22.3
2017-11-27T00:09:29.058Z,22.3
2017-11-27T00:10:37.075Z,22.4
2017-11-27T00:11:45.162Z,22.3
2017-11-27T00:12:53.277Z,22.3
2017-11-27T00:14:01.335Z,22.3
2017-11-27T00:15:09.421Z,22.3
2017-11-27T00:16:17.509Z,22.3
2017-11-27T00:17:25.605Z,22.2
2017-11-27T00:18:33.682Z,22.3
2017-11-27T00:19:41.771Z,22.3
2017-11-27T00:20:49.851Z,22.3
2017-11-27T00:21:57.937Z,22.3
2017-11-27T00:23:06.027Z,22.4
2017-11-27T00:24:14.112Z,22.4
2017-11-27T00:25:22.199Z,22.4
2017-11-27T00:26:30.294Z,22.3
2017-11-27T00:27:38.372Z,22.3
2017-11-27T00:28:46.460Z,22.3
2017-11-27T00:29:54.546Z,22.4
2017-11-27T00:31:02.632Z,22.3
2017-11-27T00:32:10.725Z,22.4
2017-11-27T00:33:18.802Z,22.4
2017-11-27T00:34:26.892Z,22.3
2017-11-27T00:35:34.979Z,22.4
2017-11-27T00:36:43.062Z,22.4
2017-11-27T00:37:51.151Z,22.4
2017-11-27T00:38:59.235Z,22.4
2017-11-27T00:40:07.332Z,22.4
2017-11-27T00:41:15.408Z,22.4
2017-11-27T00:42:23.496Z,22.4
2017-11-27T00:43:31.584Z,22.4
2017-11-27T00:44:39.671Z,22.4
2017-11-27T00:45:47.755Z,22.4
2017-11-27T00:46:55.840Z,22.4
2017-11-27T00:48:03.937Z,22.4
2017-11-27T00:49:12.013Z,22.4
2017-11-27T00:50:20.101Z,22.4
2017-11-27T00:51:28.224Z,22.4
2017-11-27T00:52:36.277Z,22.3
2017-11-27T00:53:44.361Z,22.4
2017-11-27T00:54:52.450Z,22.4
2017-11-27T00:56:00.533Z,22.4
2017-11-27T00:57:08.618Z,22.4
2017-11-27T00:58:16.712Z,22.4
2017-11-27T00:59:24.798Z,22.5
2017-11-27T01:00:32.884Z,22.4
2017-11-27T01:01:40.971Z,22.4
2017-11-27T01:02:49.055Z,22.4
2017-11-27T01:03:57.141Z,22.5
2017-11-27T01:05:05.238Z,22.5
2017-11-27T01:06:13.319Z,22.5
2017-11-27T01:07:21.401Z,22.5
2017-11-27T01:08:29.487Z,22.5
2017-11-27T01:09:37.635Z,22.4
2017-11-27T01:10:45.723Z,22.6
2017-11-27T01:11:53.818Z,22.5
2017-11-27T01:13:01.899Z,22.5
2017-11-27T01:14:09.985Z,22.5
2017-11-27T01:15:18.084Z,22.5
2017-11-27T01:16:26.160Z,22.6
2017-11-27T01:17:34.256Z,22.5
2017-11-27T01:18:42.332Z,22.5
2017-11-27T01:19:50.418Z,22.6
2017-11-27T01:20:58.503Z,22.5
2017-11-27T01:22:06.590Z,22.5
2017-11-27T01:23:14.677Z,22.5
2017-11-27T01:24:22.762Z,22.5
2017-11-27T01:25:30.851Z,22.5
2017-11-27T01:26:38.939Z,22.6
2017-11-27T01:27:47.022Z,22.6
2017-11-27T01:28:55.114Z,22.5
2017-11-27T01:30:03.195Z,22.6
2017-11-27T01:31:11.281Z,22.6
2017-11-27T01:32:19.406Z,22.6
2017-11-27T01:33:27.456Z,22.6
2017-11-27T01:34:35.543Z,22.6
2017-11-27T01:35:43.647Z,22.5
2017-11-27T01:36:51.718Z,22.6
2017-11-27T01:37:59.805Z,22.6
2017-11-27T01:39:07.892Z,22.6
2017-11-27T01:40:15.974Z,22.6
2017-11-27T01:41:24.061Z,22.6
2017-11-27T01:42:32.150Z,22.6
2017-11-27T01:43:40.234Z,22.6
2017-11-27T01:44:48.320Z,22.6
2017-11-27T01:45:56.408Z,22.6
2017-11-27T01:47:04.496Z,22.6
2017-11-27T01:48:12.580Z,22.6
2017-11-27T01:49:20.666Z,22.6
2017-11-27T01:50:28.752Z,22.7
2017-11-27T01:51:36.839Z,22.6
2017-11-27T01:52:44.927Z,22.6
2017-11-27T01:53:53.017Z,22.6
2017-11-27T01:55:01.103Z,22.6
2017-11-27T01:56:09.193Z,22.6
2017-11-27T01:57:17.273Z,22.6
2017-11-27T01:58:25.380Z,22.6
2017-11-27T01:59:33.465Z,22.6
2017-11-27T02:00:41.551Z,22.6
2017-11-27T02:01:49.645Z,22.7
2017-11-27T02:02:57.748Z,22.6
2017-11-27T02:04:05.831Z,22.6
2017-11-27T02:05:13.921Z,22.6
2017-11-27T02:06:22.016Z,22.6
2017-11-27T02:07:30.101Z,22.6
2017-11-27T02:08:38.191Z,22.7
2017-11-27T02:09:46.272Z,22.6
2017-11-27T02:10:54.358Z,22.7
2017-11-27T02:12:02.446Z,22.7
2017-11-27T02:13:10.538Z,22.6
2017-11-27T02:14:18.626Z,22.6
2017-11-27T02:15:26.710Z,22.7
2017-11-27T02:16:34.793Z,22.7
2017-11-27T02:17:42.883Z,22.6
2017-11-27T02:18:50.972Z,22.6
2017-11-27T02:19:59.058Z,22.6
2017-11-27T02:21:07.144Z,22.6
2017-11-27T02:22:15.598Z,22.6
2017-11-27T02:23:23.681Z,22.6
2017-11-27T02:24:32.291Z,22.6
2017-11-27T02:25:40.498Z,22.6
2017-11-27T02:26:48.582Z,22.6
2017-11-27T02:27:56.670Z,22.6
2017-11-27T02:29:04.763Z,22.6
2017-11-27T02:30:12.845Z,22.6
2017-11-27T02:31:20.931Z,22.6
2017-11-27T02:32:29.017Z,22.6
2017-11-27T02:33:37.107Z,22.6
2017-11-27T02:34:45.193Z,22.6
2017-11-27T02:35:53.277Z,22.6
2017-11-27T02:37:01.363Z,22.6
2017-11-27T02:38:09.447Z,22.6
2017-11-27T02:39:17.533Z,22.6
2017-11-27T02:40:25.621Z,22.6
2017-11-27T02:41:33.718Z,22.6
2017-11-27T02:42:41.805Z,22.7
2017-11-27T02:43:49.912Z,22.6
2017-11-27T02:44:57.985Z,22.6
2017-11-27T02:46:06.072Z,22.6
2017-11-27T02:47:14.159Z,22.6
2017-11-27T02:48:22.249Z,22.6
2017-11-27T02:49:30.330Z,22.6
2017-11-27T02:50:38.422Z,22.6
2017-11-27T02:51:46.506Z,22.6
2017-11-27T02:52:54.593Z,22.6
2017-11-27T02:54:02.680Z,22.6
2017-11-27T02:55:10.766Z,22.5
2017-11-27T02:56:18.850Z,22.6
2017-11-27T02:57:26.937Z,22.6
2017-11-27T02:58:35.024Z,22.6
2017-11-27T02:59:43.110Z,22.5
2017-11-27T03:00:51.196Z,22.6
2017-11-27T03:01:59.284Z,22.6
2017-11-27T03:03:07.368Z,22.6
2017-11-27T03:04:15.460Z,22.6
2017-11-27T03:05:23.540Z,22.6
2017-11-27T03:06:31.630Z,22.6
2017-11-27T03:07:39.718Z,22.5
2017-11-27T03:08:47.804Z,22.6
2017-11-27T03:09:55.891Z,22.6
2017-11-27T03:11:03.987Z,22.6
2017-11-27T03:12:12.065Z,22.5
2017-11-27T03:13:20.152Z,22.5
2017-11-27T03:14:28.244Z,22.6
2017-11-27T03:15:36.323Z,22.5
2017-11-27T03:16:44.420Z,22.6
2017-11-27T03:17:52.510Z,22.5
2017-11-27T03:19:00.594Z,22.6
2017-11-27T03:20:08.680Z,22.5
2017-11-27T03:21:16.782Z,22.6
2017-11-27T03:22:24.854Z,22.5
2017-11-27T03:23:32.942Z,22.6
2017-11-27T03:24:41.026Z,22.4
2017-11-27T03:25:49.114Z,22.4
2017-11-27T03:26:57.200Z,22.5
2017-11-27T03:28:05.286Z,22.5
2017-11-27T03:29:13.381Z,22.5
2017-11-27T03:30:21.477Z,22.5
2017-11-27T03:31:29.554Z,22.4
2017-11-27T03:32:37.660Z,22.5
2017-11-27T03:33:45.756Z,22.4
2017-11-27T03:34:53.841Z,22.4
2017-11-27T03:36:01.934Z,22.4
2017-11-27T03:37:10.041Z,22.4
2017-11-27T03:38:18.508Z,22.3
2017-11-27T03:39:26.197Z,22.4
2017-11-27T03:40:34.283Z,22.4
2017-11-27T03:41:42.392Z,22.4
2017-11-27T03:42:50.456Z,22.4
2017-11-27T03:43:58.551Z,22.3
2017-11-27T03:45:06.632Z,22.4
2017-11-27T03:46:14.724Z,22.3
2017-11-27T03:47:22.800Z,22.3
2017-11-27T03:48:30.901Z,22.3
2017-11-27T03:49:38.987Z,22.3
2017-11-27T03:50:47.072Z,22.2
2017-11-27T03:51:55.157Z,22.3
2017-11-27T03:53:03.253Z,22.3
2017-11-27T03:54:11.332Z,22.3
2017-11-27T03:55:19.419Z,22.3
2017-11-27T03:56:27.509Z,22.3
2017-11-27T03:57:35.612Z,22.3
2017-11-27T03:58:43.677Z,22.3
2017-11-27T03:59:51.767Z,22.2
2017-11-27T04:00:59.850Z,22.2
2017-11-27T04:02:07.945Z,22.2
2017-11-27T04:03:16.023Z,22.2
2017-11-27T04:04:24.108Z,22.1
2017-11-27T04:05:32.196Z,22.1
2017-11-27T04:06:40.326Z,22.1
2017-11-27T04:07:48.372Z,22.2
2017-11-27T04:08:56.456Z,22.1
2017-11-27T04:10:04.542Z,22.2
2017-11-27T04:11:12.628Z,22.2
2017-11-27T04:12:20.717Z,22.1
2017-11-27T04:13:28.820Z,22.1
2017-11-27T04:14:36.888Z,22.1
2017-11-27T04:15:44.974Z,22.1
2017-11-27T04:16:53.063Z,22.1
2017-11-27T04:18:01.158Z,22.1
2017-11-27T04:19:09.237Z,22.1
2017-11-27T04:20:17.322Z,22.1
2017-11-27T04:21:25.410Z,22.0
2017-11-27T04:22:33.495Z,22.0
2017-11-27T04:23:41.582Z,22.1
2017-11-27T04:24:49.801Z,22.0
2017-11-27T04:25:57.887Z,22.0
2017-11-27T04:27:06.012Z,21.9
2017-11-27T04:28:14.104Z,21.9
2017-11-27T04:29:22.185Z,21.9
2017-11-27T04:30:30.270Z,21.9
2017-11-27T04:31:38.356Z,22.0
2017-11-27T04:32:46.443Z,21.9
2017-11-27T04:33:54.531Z,21.9
2017-11-27T04:35:02.936Z,21.9
2017-11-27T04:36:11.021Z,21.9
2017-11-27T04:37:19.109Z,21.9
2017-11-27T04:38:27.193Z,21.9
2017-11-27T04:39:35.283Z,21.9
2017-11-27T04:40:43.368Z,21.9
2017-11-27T04:41:51.455Z,21.8
2017-11-27T04:42:59.549Z,21.8
2017-11-27T04:44:07.628Z,21.8
2017-11-27T04:45:15.718Z,21.8
2017-11-27T04:46:23.797Z,21.8
2017-11-27T04:47:31.884Z,21.8
2017-11-27T04:48:39.971Z,21.8
2017-11-27T04:49:48.058Z,21.8
2017-11-27T04:50:56.145Z,21.7
2017-11-27T04:52:04.242Z,21.7
2017-11-27T04:53:12.317Z,21.8
2017-11-27T04:54:20.407Z,21.7
2017-11-27T04:55:28.498Z,21.7
2017-11-27T04:56:36.580Z,21.7
2017-11-27T04:57:44.666Z,21.7
2017-11-27T04:58:52.761Z,21.7
2017-11-27T05:00:00.832Z,21.7
2017-11-27T05:01:08.923Z,21.7
2017-11-27T05:02:17.017Z,21.7
2017-11-27T05:03:25.103Z,21.7
2017-11-27T05:04:33.182Z,21.6
2017-11-27T05:05:41.270Z,21.6
2017-11-27T05:06:49.355Z,21.6
2017-11-27T05:07:57.443Z,21.7
2017-11-27T05:09:05.528Z,21.6
2017-11-27T05:10:13.616Z,21.7
2017-11-27T05:11:21.702Z,21.6
2017-11-27T05:12:29.787Z,21.7
2017-11-27T05:13:37.873Z,21.7
2017-11-27T05:14:45.959Z,21.7
2017-11-27T05:15:54.043Z,21.6
2017-11-27T05:17:02.131Z,21.6
2017-11-27T05:18:10.218Z,21.6
2017-11-27T05:19:18.304Z,21.6
2017-11-27T05:20:26.389Z,21.6
2017-11-27T05:21:34.474Z,21.5
2017-11-27T05:22:42.559Z,21.5
2017-11-27T05:23:50.645Z,21.4
2017-11-27T05:24:58.736Z,21.4
2017-11-27T05:26:06.813Z,21.5
2017-11-27T05:27:15.049Z,21.4
2017-11-27T05:28:22.988Z,21.4
2017-11-27T05:29:31.075Z,21.4
2017-11-27T05:30:39.160Z,21.4
2017-11-27T05:31:47.252Z,21.4
2017-11-27T05:32:55.331Z,21.4
2017-11-27T05:34:03.866Z,21.4
2017-11-27T05:35:11.501Z,21.3
2017-11-27T05:36:19.655Z,21.4
2017-11-27T05:37:27.677Z,21.4
2017-11-27T05:38:35.762Z,21.4
2017-11-27T05:39:43.848Z,21.3
2017-11-27T05:40:51.936Z,21.3
2017-11-27T05:42:00.018Z,21.3
2017-11-27T05:43:08.112Z,21.3
2017-11-27T05:44:16.210Z,21.3
2017-11-27T05:45:24.287Z,21.3
2017-11-27T05:46:32.589Z,21.3
2017-11-27T05:47:40.519Z,21.2
2017-11-27T05:48:48.983Z,21.2
2017-11-27T05:49:56.643Z,21.3
2017-11-27T05:51:04.724Z,21.3
2017-11-27T05:52:13.072Z,21.2
2017-11-27T05:53:20.938Z,21.2
2017-11-27T05:54:29.001Z,21.2
2017-11-27T05:55:37.086Z,21.1
2017-11-27T05:56:45.170Z,21.2
2017-11-27T05:57:53.255Z,21.1
2017-11-27T05:59:01.343Z,21.2
2017-11-27T06:00:09.431Z,21.2
2017-11-27T06:01:17.527Z,21.1
2017-11-27T06:02:25.602Z,21.2
2017-11-27T06:03:33.687Z,21.2
2017-11-27T06:04:41.772Z,21.2
2017-11-27T06:05:49.857Z,21.1
2017-11-27T06:06:57.947Z,21.1
2017-11-27T06:08:06.045Z,21.2
2017-11-27T06:09:14.117Z,21.2
2017-11-27T06:10:22.217Z,21.2
2017-11-27T06:11:30.312Z,21.2
2017-11-27T06:12:38.373Z,21.2
2017-11-27T06:13:46.463Z,21.1
2017-11-27T06:14:54.550Z,21.2
2017-11-27T06:16:02.640Z,21.2
2017-11-27T06:17:10.730Z,21.2
2017-11-27T06:18:18.807Z,21.1
2017-11-27T06:19:26.892Z,21.2
2017-11-27T06:20:34.982Z,21.1
2017-11-27T06:21:43.066Z,21.2
2017-11-27T06:22:51.150Z,21.2
2017-11-27T06:23:59.234Z,21.1
2017-11-27T06:25:07.333Z,21.2
2017-11-27T06:26:15.412Z,21.2
2017-11-27T06:27:23.500Z,21.1
2017-11-27T06:28:31.583Z,21.1
2017-11-27T06:29:39.667Z,21.1
2017-11-27T06:30:47.842Z,21.2
2017-11-27T06:31:55.839Z,21.1
2017-11-27T06:33:03.929Z,21.1
2017-11-27T06:34:12.011Z,21.2
2017-11-27T06:35:20.096Z,21.2
2017-11-27T06:36:28.185Z,21.2
2017-11-27T06:37:36.268Z,21.2
2017-11-27T06:38:44.358Z,21.2
2017-11-27T06:39:52.440Z,21.1
2017-11-27T06:41:00.523Z,21.2
2017-11-27T06:42:08.609Z,21.2
2017-11-27T06:43:16.696Z,21.1
2017-11-27T06:44:24.780Z,21.2
2017-11-27T06:45:32.866Z,21.2
2017-11-27T06:46:40.960Z,21.2
2017-11-27T06:47:49.039Z,21.1
2017-11-27T06:48:57.124Z,21.2
2017-11-27T06:50:05.226Z,21.1
2017-11-27T06:51:13.299Z,21.1
2017-11-27T06:52:21.386Z,21.2
2017-11-27T06:53:29.474Z,21.1
2017-11-27T06:54:37.559Z,21.2
2017-11-27T06:55:45.648Z,21.1
2017-11-27T06:56:53.747Z,21.2
2017-11-27T06:58:01.815Z,21.2
2017-11-27T06:59:09.911Z,21.1
2017-11-27T07:00:17.995Z,21.1
2017-11-27T07:01:26.091Z,21.1
2017-11-27T07:02:34.164Z,21.2
2017-11-27T07:03:42.250Z,21.1
2017-11-27T07:04:50.347Z,21.1
2017-11-27T07:05:58.427Z,21.2
2017-11-27T07:07:06.515Z,21.3
2017-11-27T07:08:14.599Z,21.1
2017-11-27T07:09:22.682Z,21.1
2017-11-27T07:10:30.770Z,21.2
2017-11-27T07:11:38.853Z,21.3
2017-11-27T07:12:46.943Z,21.2
2017-11-27T07:13:55.027Z,21.2
2017-11-27T07:15:03.120Z,21.2
2017-11-27T07:16:11.219Z,21.2
2017-11-27T07:17:19.313Z,21.2
2017-11-27T07:18:27.403Z,21.2
2017-11-27T07:19:35.484Z,21.2
2017-11-27T07:20:43.569Z,21.1
2017-11-27T07:21:51.660Z,21.1
2017-11-27T07:22:59.744Z,21.3
2017-11-27T07:24:07.830Z,21.2
2017-11-27T07:25:15.913Z,21.3
2017-11-27T07:26:24.011Z,21.2
2017-11-27T07:27:32.091Z,21.2
2017-11-27T07:28:40.170Z,21.2
2017-11-27T07:29:48.259Z,21.2
2017-11-27T07:30:56.340Z,21.2
2017-11-27T07:32:04.450Z,21.2
2017-11-27T07:33:13.005Z,21.2
2017-11-27T07:34:20.614Z,21.1
2017-11-27T07:35:28.691Z,21.1
2017-11-27T07:36:36.777Z,21.2
2017-11-27T07:37:44.886Z,21.2
2017-11-27T07:38:52.955Z,21.2
2017-11-27T07:40:01.053Z,21.2
2017-11-27T07:41:09.138Z,21.2
2017-11-27T07:42:17.224Z,21.2
2017-11-27T07:43:25.333Z,21.2
2017-11-27T07:44:33.394Z,21.2
2017-11-27T07:45:41.581Z,21.2
2017-11-27T07:46:49.666Z,21.3
2017-11-27T07:47:57.752Z,21.2
2017-11-27T07:49:05.873Z,21.2
2017-11-27T07:50:13.940Z,21.2
2017-11-27T07:51:22.020Z,21.2
2017-11-27T07:52:30.103Z,21.2
2017-11-27T07:53:38.196Z,21.2
2017-11-27T07:54:46.288Z,21.1
2017-11-27T07:55:54.364Z,21.3
2017-11-27T07:57:02.458Z,21.1
2017-11-27T07:58:10.542Z,21.1
2017-11-27T07:59:18.629Z,21.2
2017-11-27T08:00:26.717Z,21.2
2017-11-27T08:01:34.803Z,21.1
2017-11-27T08:02:42.889Z,21.2
2017-11-27T08:03:50.976Z,21.1
2017-11-27T08:04:59.063Z,21.2
2017-11-27T08:06:07.145Z,21.2
2017-11-27T08:07:15.230Z,21.1
2017-11-27T08:08:23.325Z,21.2
2017-11-27T08:09:31.412Z,21.2
2017-11-27T08:10:39.497Z,21.2
2017-11-27T08:11:47.582Z,21.2
2017-11-27T08:12:55.666Z,21.2
2017-11-27T08:14:03.752Z,21.2
2017-11-27T08:15:11.837Z,21.1
2017-11-27T08:16:19.923Z,21.1
2017-11-27T08:17:28.008Z,21.2
2017-11-27T08:18:36.114Z,21.1
2017-11-27T08:19:44.184Z,21.0
2017-11-27T08:20:52.268Z,21.1
2017-11-27T08:22:00.356Z,21.1
2017-11-27T08:23:08.437Z,21.0
2017-11-27T08:24:16.781Z,21.1
2017-11-27T08:25:24.616Z,21.0
2017-11-27T08:26:32.702Z,21.0
2017-11-27T08:27:40.790Z,21.0
2017-11-27T08:28:48.880Z,21.1
2017-11-27T08:29:56.984Z,21.1
2017-11-27T08:31:05.053Z,21.1
2017-11-27T08:32:13.136Z,21.1
2017-11-27T08:33:21.222Z,21.0
2017-11-27T08:34:29.309Z,21.1
2017-11-27T08:35:37.402Z,21.0
2017-11-27T08:36:45.486Z,21.1
2017-11-27T08:37:53.577Z,21.1
2017-11-27T08:39:01.667Z,21.1
2017-11-27T08:40:09.745Z,21.1
2017-11-27T08:41:17.834Z,21.0
2017-11-27T08:42:25.919Z,21.0
2017-11-27T08:43:34.006Z,21.0
2017-11-27T08:44:42.097Z,21.0
2017-11-27T08:45:50.183Z,21.0
2017-11-27T08:46:58.265Z,21.0
2017-11-27T08:48:06.350Z,21.0
2017-11-27T08:49:14.438Z,21.0
2017-11-27T08:50:22.518Z,21.0
2017-11-27T08:51:30.607Z,21.0
2017-11-27T08:52:38.692Z,21.1
2017-11-27T08:53:46.778Z,20.9
2017-11-27T08:54:54.864Z,20.9
2017-11-27T08:56:02.956Z,21.1
2017-11-27T08:57:11.039Z,21.0
2017-11-27T08:58:19.120Z,21.0
2017-11-27T08:59:27.203Z,21.0
2017-11-27T09:00:35.294Z,20.9
2017-11-27T09:01:43.381Z,20.9
2017-11-27T09:02:51.467Z,20.9
2017-11-27T09:03:59.555Z,20.9
2017-11-27T09:05:07.639Z,20.9
2017-11-27T09:06:15.722Z,20.9
2017-11-27T09:07:23.813Z,20.9
2017-11-27T09:08:31.900Z,21.0
2017-11-27T09:09:39.979Z,20.9
2017-11-27T09:10:48.066Z,20.9
2017-11-27T09:11:56.152Z,20.9
2017-11-27T09:13:04.241Z,20.9
2017-11-27T09:14:12.323Z,20.9
2017-11-27T09:15:20.409Z,20.9
2017-11-27T09:16:28.493Z,20.9
2017-11-27T09:17:36.581Z,20.9
2017-11-27T09:18:44.687Z,20.9
2017-11-27T09:19:52.768Z,20.9
2017-11-27T09:21:00.855Z,20.9
2017-11-27T09:22:08.942Z,20.9
2017-11-27T09:23:17.025Z,20.9
2017-11-27T09:24:25.111Z,20.8
2017-11-27T09:25:33.195Z,20.8
2017-11-27T09:26:41.280Z,20.8
2017-11-27T09:27:49.377Z,20.9
2017-11-27T09:28:57.471Z,20.8
2017-11-27T09:30:05.550Z,20.8
2017-11-27T09:31:13.643Z,20.9
2017-11-27T09:32:21.719Z,20.9
2017-11-27T09:33:29.805Z,20.8
2017-11-27T09:34:37.892Z,20.8
2017-11-27T09:35:45.978Z,20.8
2017-11-27T09:36:54.061Z,20.8
2017-11-27T09:38:02.148Z,20.8
2017-11-27T09:39:10.233Z,20.8
2017-11-27T09:40:18.320Z,20.8
2017-11-27T09:41:26.402Z,20.8
2017-11-27T09:42:34.489Z,20.8
2017-11-27T09:43:42.574Z,20.8
2017-11-27T09:44:50.661Z,20.7
2017-11-27T09:45:58.745Z,20.7
2017-11-27T09:47:06.833Z,20.7
2017-11-27T09:48:14.915Z,20.7
2017-11-27T09:49:23.006Z,20.7
2017-11-27T09:50:31.233Z,20.7
2017-11-27T09:51:39.320Z,20.7
2017-11-27T09:52:47.410Z,20.7
2017-11-27T09:53:55.504Z,20.7
2017-11-27T09:55:03.580Z,20.7
2017-11-27T09:56:11.664Z,20.7
2017-11-27T09:57:19.747Z,20.7
2017-11-27T09:58:27.832Z,20.6
2017-11-27T09:59:35.917Z,20.6
2017-11-27T10:00:44.004Z,20.7
2017-11-27T10:01:52.092Z,20.6
2017-11-27T10:03:00.217Z,20.7
2017-11-27T10:04:08.262Z,20.6
2017-11-27T10:05:16.352Z,20.6
2017-11-27T10:06:24.430Z,20.5
2017-11-27T10:07:32.521Z,20.6
2017-11-27T10:08:40.601Z,20.5
2017-11-27T10:09:48.687Z,20.5
2017-11-27T10:10:56.773Z,20.5
2017-11-27T10:12:04.860Z,20.5
2017-11-27T10:13:12.944Z,20.5
2017-11-27T10:14:21.033Z,20.5
2017-11-27T10:15:29.122Z,20.6
2017-11-27T10:16:37.202Z,20.5
2017-11-27T10:17:45.292Z,20.5
2017-11-27T10:18:53.370Z,20.4
2017-11-27T10:20:01.463Z,20.4
2017-11-27T10:21:09.553Z,20.5
2017-11-27T10:22:17.641Z,20.5
2017-11-27T10:23:25.724Z,20.5
2017-11-27T10:24:33.810Z,20.5
2017-11-27T10:25:41.896Z,20.5
2017-11-27T10:26:50.001Z,20.5
2017-11-27T10:27:58.069Z,20.6
2017-11-27T10:29:06.151Z,20.4
2017-11-27T10:30:14.236Z,20.6
2017-11-27T10:31:22.320Z,20.5
2017-11-27T10:32:30.431Z,20.5
2017-11-27T10:33:38.496Z,20.3
2017-11-27T10:34:46.587Z,20.4
2017-11-27T10:35:54.673Z,20.4
2017-11-27T10:37:02.762Z,20.3
2017-11-27T10:38:10.842Z,20.4
2017-11-27T10:39:18.928Z,20.4
2017-11-27T10:40:27.019Z,20.4
2017-11-27T10:41:35.103Z,20.4
2017-11-27T10:42:43.197Z,20.4
2017-11-27T10:43:51.275Z,20.4
2017-11-27T10:44:59.357Z,20.4
2017-11-27T10:46:07.446Z,20.4
2017-11-27T10:47:15.528Z,20.3
2017-11-27T10:48:23.614Z,20.3
2017-11-27T10:49:31.701Z,20.3
2017-11-27T10:50:39.792Z,20.3
2017-11-27T10:51:47.870Z,20.3
2017-11-27T10:52:56.018Z,20.3
2017-11-27T10:54:04.042Z,20.3
2017-11-27T10:55:12.125Z,20.2
2017-11-27T10:56:20.235Z,20.1
2017-11-27T10:57:28.294Z,20.2
2017-11-27T10:58:36.381Z,20.2
2017-11-27T10:59:44.473Z,20.2
2017-11-27T11:00:52.550Z,20.2
2017-11-27T11:02:00.634Z,20.3
2017-11-27T11:03:08.717Z,20.1
2017-11-27T11:04:16.804Z,20.2
2017-11-27T11:05:24.890Z,20.2
2017-11-27T11:06:32.975Z,20.2
2017-11-27T11:07:41.059Z,20.1
2017-11-27T11:08:49.146Z,20.1
2017-11-27T11:09:57.230Z,20.1
2017-11-27T11:11:05.313Z,20.1
2017-11-27T11:12:13.398Z,20.1
2017-11-27T11:13:21.503Z,20.1
2017-11-27T11:14:29.587Z,20.1
2017-11-27T11:15:37.676Z,20.1
2017-11-27T11:16:45.758Z,20.1
2017-11-27T11:17:53.843Z,20.1
2017-11-27T11:19:01.930Z,20.1
2017-11-27T11:20:10.009Z,20.1
2017-11-27T11:21:18.102Z,20.1
2017-11-27T11:22:26.180Z,20.1
2017-11-27T11:23:34.268Z,20.0
2017-11-27T11:24:42.358Z,20.0
2017-11-27T11:25:50.441Z,20.0
2017-11-27T11:26:58.522Z,20.0
2017-11-27T11:28:06.607Z,20.0
2017-11-27T11:29:14.715Z,20.0
2017-11-27T11:30:22.856Z,20.0
2017-11-27T11:31:30.906Z,20.0
2017-11-27T11:32:38.968Z,20.0
2017-11-27T11:33:47.053Z,20.0
2017-11-27T11:34:55.138Z,20.0
2017-11-27T11:36:03.228Z,20.0
2017-11-27T11:37:11.333Z,19.9
2017-11-27T11:38:19.394Z,19.9
2017-11-27T11:39:27.486Z,19.9
2017-11-27T11:40:35.562Z,19.9
2017-11-27T11:41:43.645Z,19.9
2017-11-27T11:42:51.732Z,19.9
2017-11-27T11:43:59.817Z,19.9
2017-11-27T11:45:07.900Z,19.9
2017-11-27T11:46:15.988Z,19.8
2017-11-27T11:47:24.071Z,19.8
2017-11-27T11:48:32.165Z,19.9
2017-11-27T11:49:40.240Z,19.7
2017-11-27T11:50:48.331Z,19.8
2017-11-27T11:51:56.411Z,19.8
2017-11-27T11:53:04.499Z,19.7
2017-11-27T11:54:12.580Z,19.7
2017-11-27T11:55:20.663Z,19.7
2017-11-27T11:56:28.754Z,19.8
2017-11-27T11:57:36.833Z,19.8
2017-11-27T11:58:44.921Z,19.8
2017-11-27T11:59:53.012Z,19.7
2017-11-27T12:01:01.094Z,19.8
2017-11-27T12:02:09.173Z,19.8
2017-11-27T12:03:17.260Z,19.7
2017-11-27T12:04:25.344Z,19.7
2017-11-27T12:05:33.444Z,19.7
2017-11-27T12:06:41.516Z,19.7
2017-11-27T12:07:49.602Z,19.7
2017-11-27T12:08:57.686Z,19.7
2017-11-27T12:10:05.775Z,19.6
2017-11-27T12:11:13.856Z,19.7
2017-11-27T12:12:21.941Z,19.7
2017-11-27T12:13:30.022Z,19.6
2017-11-27T12:14:38.111Z,19.7
2017-11-27T12:15:46.194Z,19.7
2017-11-27T12:16:54.279Z,19.6
2017-11-27T12:18:02.366Z,19.7
2017-11-27T12:19:10.449Z,19.7
2017-11-27T12:20:18.534Z,19.6
2017-11-27T12:21:26.618Z,19.7
2017-11-27T12:22:34.702Z,19.7
2017-11-27T12:23:42.795Z,19.7
2017-11-27T12:24:50.872Z,19.6
2017-11-27T12:25:58.973Z,19.6
2017-11-27T12:27:07.042Z,19.6
2017-11-27T12:28:15.127Z,19.6
2017-11-27T12:29:23.212Z,19.6
2017-11-27T12:30:31.308Z,19.6
2017-11-27T12:31:39.386Z,19.6
2017-11-27T12:32:47.473Z,19.6
2017-11-27T12:33:55.558Z,19.6
2017-11-27T12:35:03.649Z,19.5
2017-11-27T12:36:11.726Z,19.6
2017-11-27T12:37:19.810Z,19.6
2017-11-27T12:38:27.897Z,19.6
2017-11-27T12:39:35.984Z,19.6
2017-11-27T12:40:44.064Z,19.6
2017-11-27T12:41:52.145Z,19.5
2017-11-27T12:43:00.332Z,19.6
2017-11-27T12:44:08.425Z,19.5
2017-11-27T12:45:16.502Z,19.4
2017-11-27T12:46:24.593Z,19.5
2017-11-27T12:47:32.669Z,19.5
2017-11-27T12:48:40.756Z,19.4
2017-11-27T12:49:48.842Z,19.5
2017-11-27T12:50:56.929Z,19.5
2017-11-27T12:52:05.011Z,19.5
2017-11-27T12:53:13.097Z,19.4
2017-11-27T12:54:21.183Z,19.4
2017-11-27T12:55:29.264Z,19.4
2017-11-27T12:56:37.348Z,19.4
2017-11-27T12:57:45.434Z,19.5
2017-11-27T12:58:53.517Z,19.4
2017-11-27T13:00:01.986Z,19.4
2017-11-27T13:01:10.071Z,19.4
2017-11-27T13:02:18.154Z,19.3
2017-11-27T13:03:26.240Z,19.4
2017-11-27T13:04:34.328Z,19.4
2017-11-27T13:05:42.409Z,19.3
2017-11-27T13:06:50.518Z,19.3
2017-11-27T13:07:58.603Z,19.2
2017-11-27T13:09:06.690Z,19.3
2017-11-27T13:10:14.773Z,19.3
2017-11-27T13:11:22.858Z,19.2
2017-11-27T13:12:30.968Z,19.3
2017-11-27T13:13:39.034Z,19.3
2017-11-27T13:14:47.120Z,19.3
2017-11-27T13:15:55.211Z,19.2
2017-11-27T13:17:03.289Z,19.3
2017-11-27T13:18:11.372Z,19.2
2017-11-27T13:19:19.453Z,19.2
2017-11-27T13:20:27.539Z,19.2
2017-11-27T13:21:35.641Z,19.2
2017-11-27T13:22:43.722Z,19.1
2017-11-27T13:23:51.876Z,19.1
2017-11-27T13:24:59.903Z,19.1
2017-11-27T13:26:07.977Z,19.2
2017-11-27T13:27:16.058Z,19.1
2017-11-27T13:28:24.145Z,19.1
2017-11-27T13:29:32.231Z,19.1
2017-11-27T13:30:40.314Z,19.1
2017-11-27T13:31:48.401Z,19.1
2017-11-27T13:32:56.483Z,19.1
2017-11-27T13:34:04.565Z,19.1
2017-11-27T13:35:12.648Z,19.0
2017-11-27T13:36:20.734Z,19.0
2017-11-27T13:37:28.820Z,19.0
2017-11-27T13:38:36.923Z,19.0
2017-11-27T13:39:44.988Z,19.0
2017-11-27T13:40:53.073Z,19.0
2017-11-27T13:42:01.164Z,19.0
2017-11-27T13:43:09.256Z,18.9
2017-11-27T13:44:17.346Z,19.0
2017-11-27T13:45:25.426Z,18.9
2017-11-27T13:46:33.515Z,19.0
2017-11-27T13:47:41.601Z,18.8
2017-11-27T13:48:49.686Z,18.8
2017-11-27T13:49:57.769Z,18.8
2017-11-27T13:51:05.852Z,18.8
2017-11-27T13:52:13.941Z,18.8
2017-11-27T13:53:22.022Z,18.8
2017-11-27T13:54:30.110Z,18.8
2017-11-27T13:55:38.191Z,18.8
2017-11-27T13:56:46.279Z,18.7
2017-11-27T13:57:54.358Z,18.8
2017-11-27T13:59:02.446Z,18.7
2017-11-27T14:00:11.406Z,18.8
2017-11-27T14:01:19.038Z,18.8
2017-11-27T14:02:27.121Z,18.7
2017-11-27T14:03:35.207Z,18.7
2017-11-27T14:04:43.290Z,18.7
2017-11-27T14:05:51.374Z,18.7
2017-11-27T14:06:59.459Z,18.7
2017-11-27T14:08:07.542Z,18.7
2017-11-27T14:09:15.639Z,18.7
2017-11-27T14:10:23.721Z,18.7
2017-11-27T14:11:31.811Z,18.6
2017-11-27T14:12:39.890Z,18.7
2017-11-27T14:13:47.974Z,18.6
2017-11-27T14:14:56.057Z,18.6
2017-11-27T14:16:04.142Z,18.6
2017-11-27T14:17:12.227Z,18.6
2017-11-27T14:18:20.311Z,18.6
2017-11-27T14:19:28.393Z,18.6
2017-11-27T14:20:36.479Z,18.6
2017-11-27T14:21:44.569Z,18.6
2017-11-27T14:22:52.652Z,18.7
2017-11-27T14:24:00.736Z,18.6
2017-11-27T14:25:08.826Z,18.5
2017-11-27T14:26:16.903Z,18.6
2017-11-27T14:27:24.990Z,18.6
2017-11-27T14:28:33.072Z,18.5
2017-11-27T14:29:41.157Z,18.6
2017-11-27T14:30:49.241Z,18.5
2017-11-27T14:31:57.326Z,18.5
2017-11-27T14:33:05.410Z,18.6
2017-11-27T14:34:13.493Z,18.6
2017-11-27T14:35:21.575Z,18.6
2017-11-27T14:36:29.661Z,18.6
2017-11-27T14:37:37.742Z,18.6
2017-11-27T14:38:45.825Z,18.6
2017-11-27T14:39:53.913Z,18.6
2017-11-27T14:41:01.996Z,18.6
2017-11-27T14:42:10.080Z,18.6
2017-11-27T14:43:18.166Z,18.6
2017-11-27T14:44:26.247Z,18.6
2017-11-27T14:45:34.333Z,18.7
2017-11-27T14:46:42.419Z,18.6
2017-11-27T14:47:50.503Z,18.7
2017-11-27T14:48:58.588Z,18.7
2017-11-27T14:50:06.679Z,18.7
2017-11-27T14:51:14.759Z,18.7
2017-11-27T14:52:22.843Z,18.8
2017-11-27T14:53:30.926Z,18.8
2017-11-27T14:54:39.056Z,18.8
2017-11-27T14:55:47.144Z,18.7
2017-11-27T14:56:55.210Z,18.8
2017-11-27T14:58:03.293Z,18.8
2017-11-27T14:59:11.404Z,18.8
2017-11-27T15:00:19.481Z,18.8
2017-11-27T15:01:27.564Z,18.8
2017-11-27T15:02:35.651Z,18.8
2017-11-27T15:03:43.733Z,18.9
2017-11-27T15:04:51.816Z,18.9
2017-11-27T15:05:59.901Z,18.9